Pagina principale
METAR-TAF:

METAR-TAF

Aeroporti :

Châteaudun, Francia

latitudine: 48-03N, longitudine: 001-23E, altezza: 134 m

Osservazione

Il bollettino è stato emesso 27 minuti fa, alle 20:00 UTC
Vento 19 kt da ovest
Temperature 10°C
Umidità 87%
Pressione 1012 hPa
Visibilità 10 km o più
pioggia debole, pioviggine

METAR: LFOC 162000Z AUTO 27019KT 9999 -RADZ BKN014/// BKN021/// BKN029/// ///TCU 10/08 Q1012

Ora: 21:27 (20:27 UTC)


TAF: mancante

Osservazioni e previsioni meteorologiche di più di 4000 aeroporti (messaggi METAR e TAF).

Le stazioni disponibili sono rappresentate dai dischi gialli e rossi sulla carta.

Puntare il mouse per vedere il nome della stazione.

Clicca sopra per visualizzare le osservazioni e previsioni meteorologiche.

Per cambiare la mappa : fare clic sui pulsanti verdi con una croce nera per ingrandire, il pulsante verde con un trattino per diminuire, o sulla freccia verde per le mappe adiacenti.


METAR-TAF: